Terminal Aerodrome Forecast
Issued by NWS Atlanta, GA

Home | Current Version | Previous Version | Text Only | Print | Product List | Glossary On
Versions: 1 2 3 4 5 6 7 8 9 10 11 12 13 14 15 16 17 18 19 20 21 22 23 24 25 26 27 28
000
FTAK31 PAJN 231140
TAFAHN
TAF
PAHN 231140Z 2312/2412 31012KT P6SM FEW050 OVC120
     FM232100 VRB06KT P6SM SCT040 OVC060
     FM240300 31005KT P6SM VCSH BKN040 OVC060
      AMD LTD TO CLD VIS AND WIND=

USA.gov is the U.S. government's official web portal to all federal, state and local government web resources and services.